createdAt,value
2018-04-13T00:00:09.375Z,100362.34
2018-04-13T00:02:36.218Z,100366.17
2018-04-13T00:05:03.009Z,100363.24
2018-04-13T00:07:30.440Z,100362.30
2018-04-13T00:09:57.367Z,100361.05
2018-04-13T00:12:24.327Z,100358.71
2018-04-13T00:14:51.168Z,100354.53
2018-04-13T00:17:17.974Z,100360.28
2018-04-13T00:19:44.839Z,100354.96
2018-04-13T00:22:11.648Z,100360.48
2018-04-13T00:24:39.287Z,100364.16
2018-04-13T00:27:06.126Z,100371.45
2018-04-13T00:29:33.076Z,100380.52
2018-04-13T00:32:00.024Z,100386.31
2018-04-13T00:34:26.971Z,100382.28
2018-04-13T00:36:53.830Z,100384.59
2018-04-13T00:39:20.566Z,100383.86
2018-04-13T00:41:47.357Z,100393.59
2018-04-13T00:44:14.904Z,100388.00
2018-04-13T00:46:41.746Z,100393.83
2018-04-13T00:49:08.507Z,100396.22
2018-04-13T00:51:35.432Z,100400.72
2018-04-13T00:54:02.475Z,100400.53
2018-04-13T00:56:29.440Z,100411.67
2018-04-13T00:58:56.284Z,100412.57
2018-04-13T01:01:23.227Z,100417.42
2018-04-13T01:03:49.990Z,100420.11
2018-04-13T01:06:16.734Z,100410.66
2018-04-13T01:08:43.673Z,100406.74
2018-04-13T01:11:10.414Z,100400.38
2018-04-13T01:13:37.267Z,100410.19
2018-04-13T01:16:04.307Z,100404.63
2018-04-13T01:18:31.054Z,100412.17
2018-04-13T01:20:57.851Z,100409.72
2018-04-13T01:23:25.584Z,100409.60
2018-04-13T01:25:52.450Z,100413.71
2018-04-13T01:28:19.195Z,100415.63
2018-04-13T01:30:46.011Z,100418.28
2018-04-13T01:33:12.877Z,100418.16
2018-04-13T01:35:39.611Z,100433.02
2018-04-13T01:38:06.564Z,100433.64
2018-04-13T01:40:33.301Z,100436.30
2018-04-13T01:43:00.155Z,100431.48
2018-04-13T01:45:26.894Z,100437.70
2018-04-13T01:47:53.850Z,100436.10
2018-04-13T01:50:20.703Z,100432.42
2018-04-13T01:52:47.471Z,100426.44
2018-04-13T01:55:14.501Z,100426.52
2018-04-13T01:57:41.446Z,100420.49
2018-04-13T02:00:08.111Z,100421.47
2018-04-13T02:02:34.890Z,100413.02
2018-04-13T02:05:01.769Z,100430.92
2018-04-13T02:07:28.634Z,100420.28
2018-04-13T02:09:55.482Z,100432.64
2018-04-13T02:12:22.425Z,100430.61
2018-04-13T02:14:49.395Z,100429.46
2018-04-13T02:17:16.278Z,100433.22
2018-04-13T02:19:43.899Z,100438.16
2018-04-13T02:22:10.763Z,100434.92
2018-04-13T02:24:37.811Z,100432.50
2018-04-13T02:27:04.589Z,100437.77
2018-04-13T02:29:32.135Z,100437.27
2018-04-13T02:32:05.720Z,100439.99
2018-04-13T02:34:32.631Z,100443.85
2018-04-13T02:36:59.607Z,100442.67
2018-04-13T02:39:26.669Z,100446.63
2018-04-13T02:41:53.430Z,100438.16
2018-04-13T02:44:20.469Z,100450.75
2018-04-13T02:46:47.445Z,100443.87
2018-04-13T02:49:14.363Z,100446.63
2018-04-13T02:51:41.315Z,100439.06
2018-04-13T02:54:08.259Z,100441.25
2018-04-13T02:56:35.314Z,100446.44
2018-04-13T02:59:02.159Z,100446.16
2018-04-13T03:01:29.217Z,100441.14
2018-04-13T03:03:55.990Z,100449.36
2018-04-13T03:06:22.911Z,100443.80
2018-04-13T03:08:49.977Z,100447.78
2018-04-13T03:11:16.921Z,100443.67
2018-04-13T03:13:43.863Z,100445.02
2018-04-13T03:16:10.671Z,100451.80
2018-04-13T03:18:37.383Z,100453.48
2018-04-13T03:21:04.417Z,100453.27
2018-04-13T03:23:31.467Z,100450.35
2018-04-13T03:25:58.413Z,100448.13
2018-04-13T03:28:25.365Z,100454.34
2018-04-13T03:30:52.307Z,100451.38
2018-04-13T03:33:19.067Z,100460.09
2018-04-13T03:35:45.830Z,100466.08
2018-04-13T03:38:12.857Z,100460.75
2018-04-13T03:40:39.824Z,100458.27
2018-04-13T03:43:06.650Z,100458.27
2018-04-13T03:45:33.347Z,100465.31
2018-04-13T03:48:00.884Z,100472.66
2018-04-13T03:50:27.809Z,100474.80
2018-04-13T03:52:54.591Z,100475.03
2018-04-13T03:55:21.402Z,100476.38
2018-04-13T03:57:48.190Z,100471.56
2018-04-13T04:00:15.652Z,100477.98
2018-04-13T04:02:42.479Z,100482.05
2018-04-13T04:05:09.307Z,100488.33
2018-04-13T04:07:36.160Z,100480.64
2018-04-13T04:10:03.110Z,100494.18
2018-04-13T04:12:29.806Z,100478.79
2018-04-13T04:14:57.357Z,100484.73
2018-04-13T04:17:24.983Z,100478.77
2018-04-13T04:20:10.141Z,100482.73
2018-04-13T04:22:55.764Z,100469.26
2018-04-13T04:28:35.901Z,100468.58
2018-04-13T04:31:02.998Z,100460.20
2018-04-13T04:33:29.819Z,100460.44
2018-04-13T04:35:57.312Z,100459.08
2018-04-13T04:38:24.037Z,100461.77
2018-04-13T04:40:51.655Z,100464.50
2018-04-13T04:43:18.721Z,100469.45
2018-04-13T04:45:45.407Z,100471.28
2018-04-13T04:48:13.096Z,100480.25
2018-04-13T04:50:39.861Z,100466.41
2018-04-13T04:53:06.720Z,100472.59
2018-04-13T04:55:33.584Z,100483.36
2018-04-13T04:58:00.451Z,100490.99
2018-04-13T05:00:27.966Z,100490.31
2018-04-13T05:02:54.835Z,100491.98
2018-04-13T05:05:21.672Z,100433.65
2018-04-13T05:07:48.627Z,100503.25
2018-04-13T05:10:15.467Z,100507.18
2018-04-13T05:12:42.529Z,100509.27
2018-04-13T05:15:09.502Z,100506.61
2018-04-13T05:17:36.246Z,100510.79
2018-04-13T05:20:03.960Z,100510.75
2018-04-13T05:22:30.903Z,100508.25
2018-04-13T05:24:57.607Z,100506.25
2018-04-13T05:27:24.442Z,100521.73
2018-04-13T05:29:51.274Z,100510.77
2018-04-13T05:32:21.300Z,100522.50
2018-04-13T05:34:48.148Z,100523.78
2018-04-13T05:37:15.073Z,100532.09
2018-04-13T05:39:41.951Z,100534.39
2018-04-13T05:42:08.724Z,100534.91
2018-04-13T05:44:35.545Z,100542.89
2018-04-13T05:47:02.311Z,100536.38
2018-04-13T05:49:29.159Z,100542.56
2018-04-13T05:51:56.294Z,100538.52
2018-04-13T05:54:23.074Z,100541.56
2018-04-13T05:56:50.701Z,100552.62
2018-04-13T05:59:17.650Z,100552.92
2018-04-13T06:01:44.497Z,100555.11
2018-04-13T06:04:11.271Z,100566.95
2018-04-13T06:06:38.295Z,100564.00
2018-04-13T06:09:05.891Z,100557.72
2018-04-13T06:11:32.706Z,100567.77
2018-04-13T06:13:59.576Z,100559.91
2018-04-13T06:16:26.502Z,100573.81
2018-04-13T06:18:53.366Z,100573.28
2018-04-13T06:21:20.244Z,100574.56
2018-04-13T06:23:47.633Z,100579.47
2018-04-13T06:26:14.451Z,100584.98
2018-04-13T06:28:41.977Z,100585.20
2018-04-13T06:31:08.824Z,100586.31
2018-04-13T06:33:35.511Z,100591.46
2018-04-13T06:36:03.131Z,100596.16
2018-04-13T06:38:30.093Z,100601.28
2018-04-13T06:40:56.875Z,100598.09
2018-04-13T06:43:24.284Z,100601.11
2018-04-13T06:45:51.178Z,100600.12
2018-04-13T06:48:17.998Z,100600.59
2018-04-13T06:50:44.834Z,100605.91
2018-04-13T06:53:11.987Z,100605.44
2018-04-13T06:55:38.845Z,100608.08
2018-04-13T06:58:05.683Z,100616.42
2018-04-13T07:00:32.487Z,100626.90
2018-04-13T07:03:00.004Z,100626.55
2018-04-13T07:05:26.848Z,100633.22
2018-04-13T07:07:53.592Z,100641.88
2018-04-13T07:10:20.551Z,100644.60
2018-04-13T07:12:47.369Z,100646.55
2018-04-13T07:15:14.573Z,100651.19
2018-04-13T07:17:41.495Z,100657.62
2018-04-13T07:20:08.337Z,100668.92
2018-04-13T07:22:35.194Z,100672.84
2018-04-13T07:25:02.052Z,100671.23
2018-04-13T07:27:28.888Z,100671.72
2018-04-13T07:29:55.687Z,100673.05
2018-04-13T07:32:23.885Z,100674.11
2018-04-13T07:34:50.017Z,100677.73
2018-04-13T07:37:16.792Z,100676.45
2018-04-13T07:39:43.543Z,100680.05
2018-04-13T07:42:10.500Z,100683.58
2018-04-13T07:44:37.288Z,100690.67
2018-04-13T07:47:04.832Z,100695.39
2018-04-13T07:49:31.700Z,100708.69
2018-04-13T07:51:58.497Z,100709.00
2018-04-13T07:54:25.188Z,100703.83
2018-04-13T07:56:52.006Z,100710.95
2018-04-13T07:59:19.036Z,100710.41
2018-04-13T08:01:45.917Z,100708.53
2018-04-13T08:04:12.682Z,100716.21
2018-04-13T08:06:39.512Z,100721.06
2018-04-13T08:09:06.462Z,100728.47
2018-04-13T08:11:33.386Z,100723.97
2018-04-13T08:14:00.642Z,100724.91
2018-04-13T08:16:27.555Z,100726.83
2018-04-13T08:18:54.343Z,100734.19
2018-04-13T08:21:21.052Z,100731.37
2018-04-13T08:23:47.923Z,100734.19
2018-04-13T08:26:14.780Z,100736.77
2018-04-13T08:28:41.699Z,100730.84
2018-04-13T08:31:08.576Z,100742.35
2018-04-13T08:33:35.544Z,100733.46
2018-04-13T08:36:02.423Z,100740.48
2018-04-13T08:38:29.224Z,100744.54
2018-04-13T08:40:56.066Z,100736.72
2018-04-13T08:43:22.893Z,100740.05
2018-04-13T08:45:50.407Z,100741.96
2018-04-13T08:48:17.438Z,100742.38
2018-04-13T08:50:44.302Z,100744.54
2018-04-13T08:53:11.269Z,100732.67
2018-04-13T08:55:38.182Z,100751.68
2018-04-13T08:58:05.183Z,100755.70
2018-04-13T09:00:32.114Z,100763.21
2018-04-13T09:02:59.030Z,100766.20
2018-04-13T09:05:25.993Z,100763.50
2018-04-13T09:07:53.040Z,100774.53
2018-04-13T09:10:19.982Z,100779.73
2018-04-13T09:12:46.865Z,100783.70
2018-04-13T09:15:13.884Z,100773.70
2018-04-13T09:17:40.663Z,100775.29
2018-04-13T09:20:07.329Z,100776.95
2018-04-13T09:22:34.124Z,100770.10
2018-04-13T09:25:00.914Z,100768.67
2018-04-13T09:27:27.751Z,100774.45
2018-04-13T09:29:54.768Z,100778.58
2018-04-13T09:32:21.529Z,100777.27
2018-04-13T09:34:48.579Z,100790.73
2018-04-13T09:37:15.547Z,100796.63
2018-04-13T09:39:42.362Z,100795.39
2018-04-13T09:42:09.215Z,100798.60
2018-04-13T09:44:36.069Z,100799.92
2018-04-13T09:47:03.114Z,100797.23
2018-04-13T09:49:29.886Z,100800.62
2018-04-13T09:51:56.812Z,100797.56
2018-04-13T09:54:23.555Z,100805.84
2018-04-13T09:56:50.404Z,100809.55
2018-04-13T09:59:17.356Z,100812.02
2018-04-13T10:01:44.535Z,100800.50
2018-04-13T10:04:12.308Z,100801.76
2018-04-13T10:06:40.048Z,100797.95
2018-04-13T10:09:06.818Z,100808.85
2018-04-13T10:11:33.645Z,100803.33
2018-04-13T10:14:00.495Z,100806.93
2018-04-13T10:16:27.379Z,100804.50
2018-04-13T10:18:55.047Z,100801.36
2018-04-13T10:21:22.606Z,100803.67
2018-04-13T10:23:49.420Z,100800.19
2018-04-13T10:26:20.054Z,100795.13
2018-04-13T10:28:46.832Z,100791.38
2018-04-13T10:31:13.847Z,100790.78
2018-04-13T10:33:40.694Z,100786.66
2018-04-13T10:36:07.556Z,100784.98
2018-04-13T10:38:34.410Z,100783.48
2018-04-13T10:41:01.339Z,100797.77
2018-04-13T10:43:28.199Z,100796.74
2018-04-13T10:45:55.151Z,100799.05
2018-04-13T10:48:22.297Z,100801.17
2018-04-13T10:50:48.975Z,100803.80
2018-04-13T10:53:15.778Z,100808.73
2018-04-13T10:55:42.636Z,100807.91
2018-04-13T10:58:09.793Z,100820.14
2018-04-13T11:00:36.653Z,100820.34
2018-04-13T11:03:03.694Z,100833.70
2018-04-13T11:05:30.548Z,100843.89
2018-04-13T11:07:57.319Z,100851.57
2018-04-13T11:10:24.187Z,100857.50
2018-04-13T11:12:51.802Z,100856.23
2018-04-13T11:15:18.692Z,100874.08
2018-04-13T11:17:46.319Z,100871.41
2018-04-13T11:20:13.270Z,100877.56
2018-04-13T11:22:40.154Z,100885.98
2018-04-13T11:25:07.841Z,100887.83
2018-04-13T11:27:34.733Z,100887.67
2018-04-13T11:30:01.506Z,100892.73
2018-04-13T11:32:29.891Z,100895.52
2018-04-13T11:34:56.804Z,100900.70
2018-04-13T11:37:23.760Z,100908.34
2018-04-13T11:39:50.608Z,100905.36
2018-04-13T11:42:17.514Z,100913.52
2018-04-13T11:44:45.120Z,100914.48
2018-04-13T11:47:12.071Z,100910.13
2018-04-13T11:49:39.025Z,100912.08
2018-04-13T11:52:05.800Z,100919.73
2018-04-13T11:54:32.819Z,100922.27
2018-04-13T11:56:59.767Z,100928.25
2018-04-13T11:59:26.622Z,100933.27
2018-04-13T12:01:53.534Z,100933.47
2018-04-13T12:04:20.415Z,100941.63
2018-04-13T12:06:47.582Z,100928.48
2018-04-13T12:09:14.352Z,100945.05
2018-04-13T12:11:42.098Z,100943.88
2018-04-13T12:14:08.944Z,100944.27
2018-04-13T12:16:35.988Z,100945.13
2018-04-13T12:19:03.154Z,100946.11
2018-04-13T12:21:30.604Z,100954.51
2018-04-13T12:23:57.559Z,100959.97
2018-04-13T12:26:24.454Z,100957.89
2018-04-13T12:28:52.070Z,100964.96
2018-04-13T12:31:18.896Z,100963.16
2018-04-13T12:33:45.725Z,100965.91
2018-04-13T12:36:12.821Z,100973.79
2018-04-13T12:38:39.816Z,100978.70
2018-04-13T12:41:06.632Z,100981.33
2018-04-13T12:43:33.530Z,100986.48
2018-04-13T12:46:00.959Z,100985.07
2018-04-13T12:48:27.960Z,100992.48
2018-04-13T12:50:54.846Z,100981.50
2018-04-13T12:53:21.651Z,100985.70
2018-04-13T12:55:49.067Z,100986.45
2018-04-13T12:58:15.991Z,100984.09
2018-04-13T13:00:42.759Z,100982.98
2018-04-13T13:03:09.686Z,100982.20
2018-04-13T13:05:36.504Z,100980.30
2018-04-13T13:08:03.219Z,100977.91
2018-04-13T13:10:30.778Z,100981.16
2018-04-13T13:12:57.796Z,100991.20
2018-04-13T13:15:24.582Z,100984.15
2018-04-13T13:17:52.311Z,100990.19
2018-04-13T13:20:19.127Z,100993.01
2018-04-13T13:22:45.930Z,101000.03
2018-04-13T13:25:12.758Z,100994.70
2018-04-13T13:27:39.724Z,100992.48
2018-04-13T13:30:06.665Z,100993.08
2018-04-13T13:32:33.603Z,101000.43
2018-04-13T13:35:00.568Z,100987.28
2018-04-13T13:37:27.566Z,101003.36
2018-04-13T13:39:54.271Z,100986.36
2018-04-13T13:42:21.199Z,101000.31
2018-04-13T13:44:47.977Z,101000.85
2018-04-13T13:47:14.755Z,100992.23
2018-04-13T13:49:41.483Z,101001.31
2018-04-13T13:52:09.111Z,100998.23
2018-04-13T13:54:35.856Z,101009.38
2018-04-13T13:57:02.739Z,101006.78
2018-04-13T13:59:30.367Z,101008.04
2018-04-13T14:01:57.239Z,101009.86
2018-04-13T14:04:24.060Z,101008.28
2018-04-13T14:06:50.932Z,101012.86
2018-04-13T14:09:17.859Z,101011.93
2018-04-13T14:11:44.713Z,101017.84
2018-04-13T14:14:11.556Z,101015.92
2018-04-13T14:16:38.526Z,101024.91
2018-04-13T14:19:05.258Z,101032.39
2018-04-13T14:21:32.201Z,101031.70
2018-04-13T14:23:59.075Z,101032.33
2018-04-13T14:26:26.831Z,101035.84
2018-04-13T14:28:53.663Z,101043.77
2018-04-13T14:31:20.617Z,101042.35
2018-04-13T14:33:47.575Z,101039.81
2018-04-13T14:36:14.444Z,101034.09
2018-04-13T14:38:41.338Z,101044.68
2018-04-13T14:41:08.827Z,101035.11
2018-04-13T14:43:35.685Z,101043.69
2018-04-13T14:46:02.471Z,101049.53
2018-04-13T14:48:30.100Z,101061.30
2018-04-13T14:50:56.992Z,101065.27
2018-04-13T14:53:23.730Z,101068.73
2018-04-13T14:55:51.354Z,101065.28
2018-04-13T14:58:18.155Z,101070.05
2018-04-13T15:00:44.980Z,101076.05
2018-04-13T15:03:12.603Z,101073.58
2018-04-13T15:05:39.394Z,101082.41
2018-04-13T15:08:07.119Z,101087.16
2018-04-13T15:10:33.818Z,101091.70
2018-04-13T15:13:01.449Z,101093.22
2018-04-13T15:15:28.283Z,101085.78
2018-04-13T15:17:55.134Z,101088.22
2018-04-13T15:20:21.776Z,101102.61
2018-04-13T15:22:48.523Z,101093.98
2018-04-13T15:25:15.577Z,101108.70
2018-04-13T15:27:42.239Z,101111.33
2018-04-13T15:30:09.158Z,101117.41
2018-04-13T15:32:36.088Z,101122.79
2018-04-13T15:35:03.169Z,101128.89
2018-04-13T15:37:30.136Z,101134.37
2018-04-13T15:39:56.942Z,101136.34
2018-04-13T15:42:23.824Z,101132.06
2018-04-13T15:44:50.764Z,101136.83
2018-04-13T15:47:17.617Z,101141.11
2018-04-13T15:49:44.774Z,101147.50
2018-04-13T15:52:11.503Z,101147.42
2018-04-13T15:54:38.427Z,101156.95
2018-04-13T15:57:05.928Z,101150.16
2018-04-13T15:59:32.704Z,101166.69
2018-04-13T16:02:01.017Z,101160.45
2018-04-13T16:04:27.905Z,101171.12
2018-04-13T16:06:54.600Z,101168.80
2018-04-13T16:09:22.080Z,101169.56
2018-04-13T16:11:48.904Z,101183.30
2018-04-13T16:14:16.479Z,101182.89
2018-04-13T16:16:43.991Z,101183.08
2018-04-13T16:19:11.176Z,101190.09
2018-04-13T16:21:38.734Z,101191.82
2018-04-13T16:24:05.559Z,101201.55
2018-04-13T16:26:32.327Z,101200.29
2018-04-13T16:28:59.923Z,101213.20
2018-04-13T16:31:26.718Z,101211.22
2018-04-13T16:33:53.564Z,101219.08
2018-04-13T16:36:20.354Z,101232.47
2018-04-13T16:38:47.921Z,101232.61
2018-04-13T16:41:15.448Z,101243.23
2018-04-13T16:43:42.391Z,101237.28
2018-04-13T16:46:09.050Z,101249.48
2018-04-13T16:48:35.782Z,101242.75
2018-04-13T16:51:02.655Z,101235.95
2018-04-13T16:53:29.411Z,101228.70
2018-04-13T16:55:56.863Z,101234.77
2018-04-13T16:58:24.597Z,101240.41
2018-04-13T17:00:51.448Z,101234.61
2018-04-13T17:03:18.334Z,101235.02
2018-04-13T17:05:45.966Z,101228.48
2018-04-13T17:08:12.853Z,101236.92
2018-04-13T17:10:39.611Z,101241.14
2018-04-13T17:13:06.511Z,101223.73
2018-04-13T17:15:33.251Z,101223.16
2018-04-13T17:17:59.961Z,101230.60
2018-04-13T17:20:26.811Z,101234.82
2018-04-13T17:22:53.522Z,101235.66
2018-04-13T17:25:20.377Z,101229.61
2018-04-13T17:27:47.795Z,101234.04
2018-04-13T17:30:14.611Z,101229.43
2018-04-13T17:32:41.492Z,101239.16
2018-04-13T17:35:08.320Z,101238.77
2018-04-13T17:37:35.386Z,101236.21
2018-04-13T17:40:02.349Z,101247.59
2018-04-13T17:42:29.412Z,101242.05
2018-04-13T17:44:56.261Z,101260.13
2018-04-13T17:47:23.115Z,101270.61
2018-04-13T17:49:49.977Z,101269.82
2018-04-13T17:52:16.999Z,101269.32
2018-04-13T17:54:43.795Z,101274.02
2018-04-13T17:57:10.798Z,101273.41
2018-04-13T17:59:37.560Z,101267.44
2018-04-13T18:02:04.592Z,101269.70
2018-04-13T18:04:31.437Z,101273.73
2018-04-13T18:06:58.245Z,101264.58
2018-04-13T18:09:25.954Z,101264.23
2018-04-13T18:11:52.899Z,101263.52
2018-04-13T18:14:19.708Z,101273.03
2018-04-13T18:16:46.598Z,101269.70
2018-04-13T18:19:13.351Z,101273.47
2018-04-13T18:21:40.199Z,101281.42
2018-04-13T18:24:06.964Z,101277.69
2018-04-13T18:26:33.826Z,101280.92
2018-04-13T18:29:01.464Z,101280.49
2018-04-13T18:31:28.419Z,101289.48
2018-04-13T18:33:55.367Z,101287.83
2018-04-13T18:36:22.309Z,101284.23
2018-04-13T18:38:49.151Z,101296.28
2018-04-13T18:41:16.003Z,101301.08
2018-04-13T18:43:42.796Z,101301.75
2018-04-13T18:46:10.462Z,101303.17
2018-04-13T18:48:37.299Z,101312.43
2018-04-13T18:51:04.933Z,101315.27
2018-04-13T18:53:31.886Z,101315.97
2018-04-13T18:55:58.695Z,101322.17
2018-04-13T18:58:25.675Z,101322.38
2018-04-13T19:00:52.523Z,101326.41
2018-04-13T19:03:19.284Z,101328.97
2018-04-13T19:05:46.141Z,101318.66
2018-04-13T19:08:13.001Z,101325.45
2018-04-13T19:10:40.470Z,101333.59
2018-04-13T19:13:08.049Z,101333.16
2018-04-13T19:15:35.613Z,101337.09
2018-04-13T19:18:03.245Z,101333.05
2018-04-13T19:20:30.276Z,101342.10
2018-04-13T19:22:57.032Z,101348.39
2018-04-13T19:25:23.799Z,101346.94
2018-04-13T19:27:51.937Z,101361.31
2018-04-13T19:30:18.675Z,101342.44
2018-04-13T19:32:45.547Z,101367.71
2018-04-13T19:35:12.423Z,101369.60
2018-04-13T19:37:39.259Z,101370.50
2018-04-13T19:40:06.292Z,101366.72
2018-04-13T19:42:33.186Z,101349.94
2018-04-13T19:45:00.807Z,101376.63
2018-04-13T19:47:27.763Z,101377.58
2018-04-13T19:49:54.840Z,101376.98
2018-04-13T19:52:21.765Z,101383.24
2018-04-13T19:54:48.562Z,101384.64
2018-04-13T19:57:15.464Z,101386.61
2018-04-13T19:59:42.231Z,101371.28
2018-04-13T20:02:09.756Z,101391.36
2018-04-13T20:04:36.827Z,101396.66
2018-04-13T20:07:03.566Z,101397.16
2018-04-13T20:09:30.531Z,101398.77
2018-04-13T20:11:57.470Z,101387.70
2018-04-13T20:14:25.384Z,101397.77
2018-04-13T20:16:52.194Z,101392.97
2018-04-13T20:19:18.984Z,101393.48
2018-04-13T20:21:45.881Z,101395.72
2018-04-13T20:24:12.746Z,101391.11
2018-04-13T20:26:39.495Z,101388.77
2018-04-13T20:29:06.334Z,101398.98
2018-04-13T20:31:33.025Z,101399.53
2018-04-13T20:33:59.855Z,101410.37
2018-04-13T20:36:27.602Z,101412.98
2018-04-13T20:38:54.531Z,101422.16
2018-04-13T20:41:21.436Z,101435.24
2018-04-13T20:43:48.436Z,101411.23
2018-04-13T20:46:15.086Z,101433.00
2018-04-13T20:48:41.927Z,101428.30
2018-04-13T20:51:08.702Z,101436.33
2018-04-13T20:53:35.572Z,101432.17
2018-04-13T20:56:02.488Z,101430.78
2018-04-13T20:58:29.223Z,101428.66
2018-04-13T21:00:56.167Z,101432.81
2018-04-13T21:03:23.063Z,101429.18
2018-04-13T21:05:50.787Z,101439.36
2018-04-13T21:08:17.672Z,101435.43
2018-04-13T21:10:45.300Z,101431.14
2018-04-13T21:13:12.243Z,101427.13
2018-04-13T21:15:39.023Z,101427.15
2018-04-13T21:18:06.615Z,101425.59
2018-04-13T21:20:33.514Z,101417.30
2018-04-13T21:23:00.394Z,101418.21
2018-04-13T21:25:27.959Z,101413.20
2018-04-13T21:27:55.623Z,101404.25
2018-04-13T21:30:22.543Z,101419.79
2018-04-13T21:32:49.203Z,101435.32
2018-04-13T21:35:16.066Z,101430.39
2018-04-13T21:37:43.048Z,101440.11
2018-04-13T21:40:09.743Z,101423.14
2018-04-13T21:42:36.465Z,101441.88
2018-04-13T21:45:03.252Z,101443.63
2018-04-13T21:47:30.014Z,101449.41
2018-04-13T21:49:57.612Z,101452.15
2018-04-13T21:52:24.595Z,101449.77
2018-04-13T21:54:51.533Z,101455.33
2018-04-13T21:57:18.302Z,101462.25
2018-04-13T21:59:45.170Z,101454.75
2018-04-13T22:02:12.761Z,101458.90
2018-04-13T22:04:39.444Z,101462.04
2018-04-13T22:07:06.210Z,101463.59
2018-04-13T22:09:33.060Z,101476.73
2018-04-13T22:12:00.091Z,101478.78
2018-04-13T22:14:59.392Z,101486.08
2018-04-13T22:17:26.251Z,101488.39
2018-04-13T22:19:52.987Z,101493.66
2018-04-13T22:22:19.832Z,101498.88
2018-04-13T22:24:46.764Z,101498.16
2018-04-13T22:27:13.706Z,101495.78
2018-04-13T22:29:40.483Z,101506.96
2018-04-13T22:32:07.501Z,101502.38
2018-04-13T22:34:34.281Z,101506.09
2018-04-13T22:37:01.104Z,101506.67
2018-04-13T22:39:28.164Z,101511.08
2018-04-13T22:41:54.893Z,101507.72
2018-04-13T22:44:21.858Z,101510.31
2018-04-13T22:46:48.700Z,101507.78
2018-04-13T22:49:15.483Z,101506.74
2018-04-13T22:51:42.955Z,101511.00
2018-04-13T22:54:10.508Z,101515.52
2018-04-13T22:56:37.361Z,101519.58
2018-04-13T22:59:04.906Z,101521.82
2018-04-13T23:01:31.830Z,101523.37
2018-04-13T23:03:58.683Z,101521.42
2018-04-13T23:06:25.475Z,101521.16
2018-04-13T23:08:53.095Z,101519.23
